sensor_id;sensor_type;location;lat;lon;timestamp;pressure;altitude;pressure_sealevel;temperature;humidity
30618;BME280;17384;51.214;9.202;2023-04-29T00:00:29;98212.25;;;9.14;88.84
30618;BME280;17384;51.214;9.202;2023-04-29T00:02:55;98209.13;;;9.18;88.97
30618;BME280;17384;51.214;9.202;2023-04-29T00:05:20;98207.81;;;9.27;89.32
30618;BME280;17384;51.214;9.202;2023-04-29T00:07:45;98208.41;;;9.29;90.20
30618;BME280;17384;51.214;9.202;2023-04-29T00:10:11;98207.81;;;9.27;90.97
30618;BME280;17384;51.214;9.202;2023-04-29T00:12:39;98206.84;;;9.14;91.31
30618;BME280;17384;51.214;9.202;2023-04-29T00:15:06;98210.03;;;9.05;92.05
30618;BME280;17384;51.214;9.202;2023-04-29T00:17:33;98200.84;;;8.81;92.00
30618;BME280;17384;51.214;9.202;2023-04-29T00:19:58;98200.84;;;8.81;92.29
30618;BME280;17384;51.214;9.202;2023-04-29T00:22:24;98207.31;;;8.80;92.47
30618;BME280;17384;51.214;9.202;2023-04-29T00:24:49;98215.88;;;8.77;92.58
30618;BME280;17384;51.214;9.202;2023-04-29T00:27:15;98213.84;;;8.72;93.07
30618;BME280;17384;51.214;9.202;2023-04-29T00:29:42;98215.28;;;8.75;93.48
30618;BME280;17384;51.214;9.202;2023-04-29T00:32:07;98219.19;;;8.79;93.36
30618;BME280;17384;51.214;9.202;2023-04-29T00:34:33;98225.81;;;8.83;93.18
30618;BME280;17384;51.214;9.202;2023-04-29T00:36:58;98231.84;;;8.85;92.71
30618;BME280;17384;51.214;9.202;2023-04-29T00:39:24;98222.47;;;8.88;92.83
30618;BME280;17384;51.214;9.202;2023-04-29T00:41:50;98224.97;;;8.82;92.51
30618;BME280;17384;51.214;9.202;2023-04-29T00:44:16;98230.00;;;8.79;91.77
30618;BME280;17384;51.214;9.202;2023-04-29T00:46:41;98213.63;;;8.74;92.08
30618;BME280;17384;51.214;9.202;2023-04-29T00:49:07;98231.31;;;8.70;92.33
30618;BME280;17384;51.214;9.202;2023-04-29T00:51:35;98232.56;;;8.74;92.31
30618;BME280;17384;51.214;9.202;2023-04-29T00:54:02;98234.69;;;8.65;92.34
30618;BME280;17384;51.214;9.202;2023-04-29T00:56:30;98235.09;;;8.62;92.71
30618;BME280;17384;51.214;9.202;2023-04-29T00:58:57;98240.09;;;8.65;92.88
30618;BME280;17384;51.214;9.202;2023-04-29T01:01:22;98243.84;;;8.64;93.20
30618;BME280;17384;51.214;9.202;2023-04-29T01:03:49;98252.75;;;8.71;93.31
30618;BME280;17384;51.214;9.202;2023-04-29T01:09:07;98249.53;;;8.81;93.64
30618;BME280;17384;51.214;9.202;2023-04-29T01:11:46;98252.44;;;8.86;93.50
30618;BME280;17384;51.214;9.202;2023-04-29T01:14:14;98254.28;;;8.92;94.01
30618;BME280;17384;51.214;9.202;2023-04-29T01:16:51;98261.09;;;9.01;94.20
30618;BME280;17384;51.214;9.202;2023-04-29T01:22:01;98254.56;;;8.77;93.00
30618;BME280;17384;51.214;9.202;2023-04-29T01:24:26;98255.56;;;8.83;92.80
30618;BME280;17384;51.214;9.202;2023-04-29T01:26:57;98263.28;;;8.79;92.61
30618;BME280;17384;51.214;9.202;2023-04-29T01:29:34;98259.03;;;8.97;93.52
30618;BME280;17384;51.214;9.202;2023-04-29T01:32:05;98250.59;;;9.11;94.49
30618;BME280;17384;51.214;9.202;2023-04-29T01:37:23;98251.31;;;9.25;95.13
30618;BME280;17384;51.214;9.202;2023-04-29T01:40:08;98254.25;;;9.48;96.13
30618;BME280;17384;51.214;9.202;2023-04-29T01:42:45;98264.66;;;9.70;96.26
30618;BME280;17384;51.214;9.202;2023-04-29T01:45:14;98256.34;;;9.90;96.30
30618;BME280;17384;51.214;9.202;2023-04-29T01:47:41;98275.00;;;9.98;96.19
30618;BME280;17384;51.214;9.202;2023-04-29T01:50:07;98279.69;;;10.09;95.76
30618;BME280;17384;51.214;9.202;2023-04-29T01:52:33;98284.41;;;10.13;95.20
30618;BME280;17384;51.214;9.202;2023-04-29T01:54:58;98288.34;;;10.17;95.02
30618;BME280;17384;51.214;9.202;2023-04-29T01:57:23;98274.97;;;10.23;94.03
30618;BME280;17384;51.214;9.202;2023-04-29T01:59:49;98273.31;;;10.22;93.27
30618;BME280;17384;51.214;9.202;2023-04-29T02:02:14;98274.53;;;10.26;92.92
30618;BME280;17384;51.214;9.202;2023-04-29T02:04:41;98284.53;;;10.25;92.29
30618;BME280;17384;51.214;9.202;2023-04-29T02:07:07;98283.50;;;10.26;92.01
30618;BME280;17384;51.214;9.202;2023-04-29T02:09:33;98279.94;;;10.26;91.73
30618;BME280;17384;51.214;9.202;2023-04-29T02:11:58;98291.63;;;10.26;92.05
30618;BME280;17384;51.214;9.202;2023-04-29T02:14:23;98276.63;;;10.24;92.04
30618;BME280;17384;51.214;9.202;2023-04-29T02:16:49;98287.25;;;10.25;92.13
30618;BME280;17384;51.214;9.202;2023-04-29T02:19:14;98288.91;;;10.26;92.29
30618;BME280;17384;51.214;9.202;2023-04-29T02:21:40;98293.13;;;10.22;91.92
30618;BME280;17384;51.214;9.202;2023-04-29T02:24:06;98291.78;;;10.31;91.33
30618;BME280;17384;51.214;9.202;2023-04-29T02:26:31;98286.59;;;10.30;91.45
30618;BME280;17384;51.214;9.202;2023-04-29T02:28:58;98285.00;;;10.22;91.55
30618;BME280;17384;51.214;9.202;2023-04-29T02:31:24;98293.94;;;10.23;91.34
30618;BME280;17384;51.214;9.202;2023-04-29T02:33:49;98296.28;;;10.19;91.69
30618;BME280;17384;51.214;9.202;2023-04-29T02:36:15;98284.56;;;10.18;91.47
30618;BME280;17384;51.214;9.202;2023-04-29T02:38:41;98296.28;;;10.19;91.26
30618;BME280;17384;51.214;9.202;2023-04-29T02:41:07;98306.69;;;10.22;90.75
30618;BME280;17384;51.214;9.202;2023-04-29T02:43:32;98304.41;;;10.19;91.13
30618;BME280;17384;51.214;9.202;2023-04-29T02:45:58;98301.50;;;10.14;91.25
30618;BME280;17384;51.214;9.202;2023-04-29T02:48:24;98303.03;;;10.10;91.17
30618;BME280;17384;51.214;9.202;2023-04-29T02:50:49;98313.94;;;10.03;91.37
30618;BME280;17384;51.214;9.202;2023-04-29T02:53:15;98306.25;;;10.00;91.55
30618;BME280;17384;51.214;9.202;2023-04-29T02:55:41;98302.72;;;10.00;91.56
30618;BME280;17384;51.214;9.202;2023-04-29T02:58:07;98317.75;;;9.96;91.64
30618;BME280;17384;51.214;9.202;2023-04-29T03:00:32;98304.22;;;9.96;91.30
30618;BME280;17384;51.214;9.202;2023-04-29T03:02:58;98306.53;;;9.92;91.44
30618;BME280;17384;51.214;9.202;2023-04-29T03:05:23;98310.06;;;9.93;91.22
30618;BME280;17384;51.214;9.202;2023-04-29T03:07:49;98312.56;;;9.94;91.10
30618;BME280;17384;51.214;9.202;2023-04-29T03:10:14;98304.66;;;9.93;91.08
30618;BME280;17384;51.214;9.202;2023-04-29T03:12:39;98318.81;;;9.95;91.06
30618;BME280;17384;51.214;9.202;2023-04-29T03:15:06;98312.78;;;9.93;90.88
30618;BME280;17384;51.214;9.202;2023-04-29T03:17:32;98309.09;;;9.87;90.97
30618;BME280;17384;51.214;9.202;2023-04-29T03:19:58;98320.75;;;9.88;91.16
30618;BME280;17384;51.214;9.202;2023-04-29T03:22:24;98329.03;;;9.93;90.41
30618;BME280;17384;51.214;9.202;2023-04-29T03:24:49;98324.69;;;9.92;90.29
30618;BME280;17384;51.214;9.202;2023-04-29T03:27:15;98319.09;;;9.87;90.28
30618;BME280;17384;51.214;9.202;2023-04-29T03:29:40;98320.75;;;9.88;90.37
30618;BME280;17384;51.214;9.202;2023-04-29T03:32:05;98314.00;;;9.97;89.79
30618;BME280;17384;51.214;9.202;2023-04-29T03:34:31;98321.53;;;9.95;89.31
30618;BME280;17384;51.214;9.202;2023-04-29T03:36:56;98327.31;;;9.98;88.53
30618;BME280;17384;51.214;9.202;2023-04-29T03:39:22;98331.91;;;9.98;87.65
30618;BME280;17384;51.214;9.202;2023-04-29T03:41:47;98321.69;;;10.00;87.11
30618;BME280;17384;51.214;9.202;2023-04-29T03:44:13;98322.06;;;10.03;86.36
30618;BME280;17384;51.214;9.202;2023-04-29T03:46:38;98328.09;;;10.05;86.61
30618;BME280;17384;51.214;9.202;2023-04-29T03:49:04;98332.47;;;10.06;86.53
30618;BME280;17384;51.214;9.202;2023-04-29T03:51:29;98325.00;;;10.02;86.43
30618;BME280;17384;51.214;9.202;2023-04-29T03:53:56;98328.16;;;9.99;86.48
30618;BME280;17384;51.214;9.202;2023-04-29T03:56:22;98321.97;;;9.92;87.15
30618;BME280;17384;51.214;9.202;2023-04-29T03:58:50;98328.88;;;9.88;87.27
30618;BME280;17384;51.214;9.202;2023-04-29T04:01:15;98319.56;;;9.83;87.28
30618;BME280;17384;51.214;9.202;2023-04-29T04:03:41;98328.97;;;9.81;86.87
30618;BME280;17384;51.214;9.202;2023-04-29T04:06:07;98330.75;;;9.87;86.27
30618;BME280;17384;51.214;9.202;2023-04-29T04:08:33;98341.59;;;9.87;86.12
30618;BME280;17384;51.214;9.202;2023-04-29T04:10:58;98351.38;;;9.88;86.23
30618;BME280;17384;51.214;9.202;2023-04-29T04:13:28;98347.78;;;9.94;85.78
30618;BME280;17384;51.214;9.202;2023-04-29T04:15:53;98350.44;;;10.01;85.67
30618;BME280;17384;51.214;9.202;2023-04-29T04:18:19;98358.41;;;9.96;86.25
30618;BME280;17384;51.214;9.202;2023-04-29T04:20:44;98356.81;;;9.88;86.65
30618;BME280;17384;51.214;9.202;2023-04-29T04:23:10;98368.91;;;9.85;87.09
30618;BME280;17384;51.214;9.202;2023-04-29T04:25:35;98366.66;;;9.82;87.62
30618;BME280;17384;51.214;9.202;2023-04-29T04:28:01;98385.63;;;9.82;87.95
30618;BME280;17384;51.214;9.202;2023-04-29T04:30:26;98384.84;;;9.75;88.64
30618;BME280;17384;51.214;9.202;2023-04-29T04:32:52;98377.16;;;9.72;88.87
30618;BME280;17384;51.214;9.202;2023-04-29T04:35:17;98391.31;;;9.74;89.05
30618;BME280;17384;51.214;9.202;2023-04-29T04:37:42;98385.06;;;9.74;88.93
30618;BME280;17384;51.214;9.202;2023-04-29T04:40:08;98385.09;;;9.67;89.74
30618;BME280;17384;51.214;9.202;2023-04-29T04:42:35;98393.03;;;9.69;89.61
30618;BME280;17384;51.214;9.202;2023-04-29T04:45:01;98386.59;;;9.63;90.05
30618;BME280;17384;51.214;9.202;2023-04-29T04:47:26;98399.25;;;9.69;89.73
30618;BME280;17384;51.214;9.202;2023-04-29T04:49:52;98409.50;;;9.67;89.74
30618;BME280;17384;51.214;9.202;2023-04-29T04:52:21;98405.69;;;9.75;89.52
30618;BME280;17384;51.214;9.202;2023-04-29T04:54:46;98414.66;;;9.75;88.91
30618;BME280;17384;51.214;9.202;2023-04-29T04:57:12;98411.53;;;9.72;88.17
30618;BME280;17384;51.214;9.202;2023-04-29T04:59:38;98420.09;;;9.69;88.34
30618;BME280;17384;51.214;9.202;2023-04-29T05:02:03;98421.72;;;9.76;88.26
30618;BME280;17384;51.214;9.202;2023-04-29T05:04:29;98423.03;;;9.67;87.84
30618;BME280;17384;51.214;9.202;2023-04-29T05:06:54;98415.94;;;9.66;87.78
30618;BME280;17384;51.214;9.202;2023-04-29T05:09:20;98426.38;;;9.63;88.30
30618;BME280;17384;51.214;9.202;2023-04-29T05:11:45;98429.31;;;9.61;88.28
30618;BME280;17384;51.214;9.202;2023-04-29T05:14:11;98430.56;;;9.59;88.87
30618;BME280;17384;51.214;9.202;2023-04-29T05:16:36;98440.53;;;9.65;89.09
30618;BME280;17384;51.214;9.202;2023-04-29T05:19:02;98429.28;;;9.68;89.30
30618;BME280;17384;51.214;9.202;2023-04-29T05:21:27;98438.06;;;9.63;88.59
30618;BME280;17384;51.214;9.202;2023-04-29T05:23:53;98437.44;;;9.61;87.78
30618;BME280;17384;51.214;9.202;2023-04-29T05:26:18;98439.72;;;9.64;87.74
30618;BME280;17384;51.214;9.202;2023-04-29T05:28:43;98429.47;;;9.73;87.64
30618;BME280;17384;51.214;9.202;2023-04-29T05:31:09;98426.09;;;9.77;87.32
30618;BME280;17384;51.214;9.202;2023-04-29T05:33:35;98431.28;;;9.79;86.96
30618;BME280;17384;51.214;9.202;2023-04-29T05:36:00;98447.72;;;9.84;86.58
30618;BME280;17384;51.214;9.202;2023-04-29T05:38:26;98447.13;;;9.82;86.53
30618;BME280;17384;51.214;9.202;2023-04-29T05:40:54;98463.09;;;9.90;86.49
30618;BME280;17384;51.214;9.202;2023-04-29T05:43:19;98459.94;;;9.93;86.47
30618;BME280;17384;51.214;9.202;2023-04-29T05:45:45;98455.59;;;9.85;86.98
30618;BME280;17384;51.214;9.202;2023-04-29T05:48:11;98457.63;;;9.97;86.98
30618;BME280;17384;51.214;9.202;2023-04-29T05:50:36;98470.13;;;9.98;86.66
30618;BME280;17384;51.214;9.202;2023-04-29T05:53:02;98474.41;;;10.12;85.56
30618;BME280;17384;51.214;9.202;2023-04-29T05:55:28;98478.00;;;10.06;85.44
30618;BME280;17384;51.214;9.202;2023-04-29T05:57:54;98474.88;;;10.02;85.67
30618;BME280;17384;51.214;9.202;2023-04-29T06:00:20;98482.19;;;10.02;85.33
30618;BME280;17384;51.214;9.202;2023-04-29T06:02:46;98481.63;;;9.93;85.32
30618;BME280;17384;51.214;9.202;2023-04-29T06:05:12;98482.88;;;9.91;85.55
30618;BME280;17384;51.214;9.202;2023-04-29T06:07:39;98494.00;;;9.82;85.61
30618;BME280;17384;51.214;9.202;2023-04-29T06:10:07;98500.31;;;9.70;85.92
30618;BME280;17384;51.214;9.202;2023-04-29T06:12:32;98509.38;;;9.57;86.59
30618;BME280;17384;51.214;9.202;2023-04-29T06:14:58;98505.22;;;9.55;86.44
30618;BME280;17384;51.214;9.202;2023-04-29T06:17:23;98507.94;;;9.48;87.06
30618;BME280;17384;51.214;9.202;2023-04-29T06:19:49;98516.06;;;9.48;87.15
30618;BME280;17384;51.214;9.202;2023-04-29T06:22:14;98521.09;;;9.38;87.30
30618;BME280;17384;51.214;9.202;2023-04-29T06:24:40;98531.09;;;9.31;87.73
30618;BME280;17384;51.214;9.202;2023-04-29T06:27:05;98529.47;;;9.30;88.16
30618;BME280;17384;51.214;9.202;2023-04-29T06:29:31;98529.72;;;9.22;88.08
30618;BME280;17384;51.214;9.202;2023-04-29T06:31:56;98527.41;;;9.25;88.03
30618;BME280;17384;51.214;9.202;2023-04-29T06:34:22;98539.03;;;9.32;87.92
30618;BME280;17384;51.214;9.202;2023-04-29T06:36:47;98530.47;;;9.35;87.39
30618;BME280;17384;51.214;9.202;2023-04-29T06:39:12;98536.50;;;9.37;87.70
30618;BME280;17384;51.214;9.202;2023-04-29T06:41:38;98546.28;;;9.38;87.56
30618;BME280;17384;51.214;9.202;2023-04-29T06:44:05;98537.72;;;9.48;87.19
30618;BME280;17384;51.214;9.202;2023-04-29T06:46:30;98537.25;;;9.58;87.05
30618;BME280;17384;51.214;9.202;2023-04-29T06:48:55;98540.97;;;9.63;87.08
30618;BME280;17384;51.214;9.202;2023-04-29T06:51:21;98549.69;;;9.72;87.36
30618;BME280;17384;51.214;9.202;2023-04-29T06:53:46;98548.84;;;9.71;86.56
30618;BME280;17384;51.214;9.202;2023-04-29T06:56:12;98560.50;;;9.78;86.21
30618;BME280;17384;51.214;9.202;2023-04-29T06:58:37;98556.41;;;9.63;86.39
30618;BME280;17384;51.214;9.202;2023-04-29T07:01:03;98562.63;;;9.63;86.14
30618;BME280;17384;51.214;9.202;2023-04-29T07:03:30;98569.72;;;9.64;86.75
30618;BME280;17384;51.214;9.202;2023-04-29T07:05:55;98575.53;;;9.68;86.49
30618;BME280;17384;51.214;9.202;2023-04-29T07:08:20;98579.38;;;9.54;86.49
30618;BME280;17384;51.214;9.202;2023-04-29T07:10:56;98595.63;;;9.47;87.06
30618;BME280;17384;51.214;9.202;2023-04-29T07:13:22;98584.81;;;9.47;86.92
30618;BME280;17384;51.214;9.202;2023-04-29T07:15:48;98588.56;;;9.46;87.17
30618;BME280;17384;51.214;9.202;2023-04-29T07:18:13;98601.44;;;9.57;87.21
30618;BME280;17384;51.214;9.202;2023-04-29T07:20:38;98609.31;;;9.65;87.49
30618;BME280;17384;51.214;9.202;2023-04-29T07:23:04;98608.06;;;9.61;87.43
30618;BME280;17384;51.214;9.202;2023-04-29T07:25:30;98614.75;;;9.59;87.94
30618;BME280;17384;51.214;9.202;2023-04-29T07:27:55;98613.31;;;9.56;87.70
30618;BME280;17384;51.214;9.202;2023-04-29T07:30:21;98620.34;;;9.70;87.46
30618;BME280;17384;51.214;9.202;2023-04-29T07:32:47;98619.72;;;9.68;87.18
30618;BME280;17384;51.214;9.202;2023-04-29T07:35:13;98621.75;;;9.79;87.08
30618;BME280;17384;51.214;9.202;2023-04-29T07:37:38;98632.38;;;9.81;86.97
30618;BME280;17384;51.214;9.202;2023-04-29T07:40:04;98630.69;;;9.87;86.84
30618;BME280;17384;51.214;9.202;2023-04-29T07:42:30;98630.94;;;9.78;86.02
30618;BME280;17384;51.214;9.202;2023-04-29T07:44:55;98632.19;;;9.82;86.22
30618;BME280;17384;51.214;9.202;2023-04-29T07:47:21;98642.19;;;9.82;86.73
30618;BME280;17384;51.214;9.202;2023-04-29T07:49:47;98643.47;;;9.66;87.36
30618;BME280;17384;51.214;9.202;2023-04-29T07:52:12;98653.88;;;9.76;87.23
30618;BME280;17384;51.214;9.202;2023-04-29T07:54:37;98642.63;;;9.72;87.76
30618;BME280;17384;51.214;9.202;2023-04-29T07:57:03;98645.34;;;9.72;87.99
30618;BME280;17384;51.214;9.202;2023-04-29T07:59:29;98657.38;;;9.83;88.20
30618;BME280;17384;51.214;9.202;2023-04-29T08:01:55;98659.69;;;9.79;87.99
30618;BME280;17384;51.214;9.202;2023-04-29T08:04:20;98650.94;;;9.77;89.24
30618;BME280;17384;51.214;9.202;2023-04-29T08:06:46;98667.84;;;9.73;89.97
30618;BME280;17384;51.214;9.202;2023-04-29T08:09:11;98665.53;;;9.76;89.93
30618;BME280;17384;51.214;9.202;2023-04-29T08:11:37;98676.59;;;9.75;89.50
30618;BME280;17384;51.214;9.202;2023-04-29T08:14:04;98667.56;;;9.88;88.84
30618;BME280;17384;51.214;9.202;2023-04-29T08:16:30;98680.44;;;9.99;88.60
30618;BME280;17384;51.214;9.202;2023-04-29T08:18:56;98678.91;;;10.16;88.18
30618;BME280;17384;51.214;9.202;2023-04-29T08:21:21;98684.31;;;10.16;87.70
30618;BME280;17384;51.214;9.202;2023-04-29T08:23:47;98682.84;;;10.33;86.63
30618;BME280;17384;51.214;9.202;2023-04-29T08:26:13;98687.13;;;10.47;85.72
30618;BME280;17384;51.214;9.202;2023-04-29T08:28:38;98677.28;;;10.53;85.15
30618;BME280;17384;51.214;9.202;2023-04-29T08:31:04;98693.78;;;10.51;85.05
30618;BME280;17384;51.214;9.202;2023-04-29T08:33:33;98693.19;;;10.43;84.98
30618;BME280;17384;51.214;9.202;2023-04-29T08:35:59;98698.78;;;10.55;84.48
30618;BME280;17384;51.214;9.202;2023-04-29T08:38:25;98697.69;;;10.62;83.94
30618;BME280;17384;51.214;9.202;2023-04-29T08:40:50;98696.56;;;10.70;83.28
30618;BME280;17384;51.214;9.202;2023-04-29T08:43:16;98699.47;;;10.75;83.19
30618;BME280;17384;51.214;9.202;2023-04-29T08:45:42;98706.22;;;10.66;82.82
30618;BME280;17384;51.214;9.202;2023-04-29T08:48:08;98702.72;;;10.59;83.27
30618;BME280;17384;51.214;9.202;2023-04-29T08:50:40;98711.06;;;10.57;83.11
30618;BME280;17384;51.214;9.202;2023-04-29T08:53:07;98711.91;;;10.58;83.16
30618;BME280;17384;51.214;9.202;2023-04-29T08:55:41;98711.91;;;10.58;83.62
30618;BME280;17384;51.214;9.202;2023-04-29T08:58:07;98715.28;;;10.46;84.15
30618;BME280;17384;51.214;9.202;2023-04-29T09:00:34;98716.84;;;10.29;85.74
30618;BME280;17384;51.214;9.202;2023-04-29T09:03:06;98720.41;;;10.23;85.97
30618;BME280;17384;51.214;9.202;2023-04-29T09:05:37;98720.19;;;10.31;86.00
30618;BME280;17384;51.214;9.202;2023-04-29T09:08:07;98726.88;;;10.15;86.58
30618;BME280;17384;51.214;9.202;2023-04-29T09:10:35;98723.94;;;10.17;86.94
30618;BME280;17384;51.214;9.202;2023-04-29T09:13:01;98732.50;;;10.14;88.31
30618;BME280;17384;51.214;9.202;2023-04-29T09:15:27;98726.94;;;10.02;88.79
30618;BME280;17384;51.214;9.202;2023-04-29T09:17:53;98731.75;;;9.87;89.41
30618;BME280;17384;51.214;9.202;2023-04-29T09:22:58;98732.56;;;10.07;89.89
30618;BME280;17384;51.214;9.202;2023-04-29T09:25:24;98735.06;;;10.09;89.81
30618;BME280;17384;51.214;9.202;2023-04-29T09:27:50;98741.69;;;10.13;90.01
30618;BME280;17384;51.214;9.202;2023-04-29T09:30:16;98742.31;;;10.15;89.77
30618;BME280;17384;51.214;9.202;2023-04-29T09:32:42;98753.78;;;10.17;89.56
30618;BME280;17384;51.214;9.202;2023-04-29T09:35:25;98748.97;;;10.26;89.43
30618;BME280;17384;51.214;9.202;2023-04-29T09:38:15;98751.91;;;10.24;87.72
30618;BME280;17384;51.214;9.202;2023-04-29T09:40:42;98761.22;;;10.41;86.93
30618;BME280;17384;51.214;9.202;2023-04-29T09:43:13;98755.75;;;10.48;86.30
30618;BME280;17384;51.214;9.202;2023-04-29T09:45:42;98773.34;;;10.77;85.49
30618;BME280;17384;51.214;9.202;2023-04-29T09:48:08;98775.47;;;11.06;85.20
30618;BME280;17384;51.214;9.202;2023-04-29T09:50:35;98773.09;;;11.16;84.69
30618;BME280;17384;51.214;9.202;2023-04-29T09:53:04;98767.06;;;11.14;83.52
30618;BME280;17384;51.214;9.202;2023-04-29T09:55:31;98767.03;;;10.90;83.12
30618;BME280;17384;51.214;9.202;2023-04-29T09:57:57;98774.06;;;10.97;83.83
30618;BME280;17384;51.214;9.202;2023-04-29T10:00:23;98774.00;;;11.04;83.78
30618;BME280;17384;51.214;9.202;2023-04-29T10:02:50;98769.25;;;10.99;83.42
30618;BME280;17384;51.214;9.202;2023-04-29T10:05:18;98779.09;;;10.94;83.04
30618;BME280;17384;51.214;9.202;2023-04-29T10:07:45;98775.25;;;11.08;82.43
30618;BME280;17384;51.214;9.202;2023-04-29T10:10:12;98780.59;;;10.90;81.54
30618;BME280;17384;51.214;9.202;2023-04-29T10:12:39;98793.16;;;10.84;80.71
30618;BME280;17384;51.214;9.202;2023-04-29T10:17:45;98792.16;;;11.10;82.52
30618;BME280;17384;51.214;9.202;2023-04-29T10:20:14;98792.88;;;11.24;81.26
30618;BME280;17384;51.214;9.202;2023-04-29T10:22:49;98800.31;;;11.35;81.53
30618;BME280;17384;51.214;9.202;2023-04-29T10:25:15;98803.53;;;11.50;81.14
30618;BME280;17384;51.214;9.202;2023-04-29T10:27:43;98802.59;;;11.63;80.66
30618;BME280;17384;51.214;9.202;2023-04-29T10:30:16;98802.94;;;11.73;80.66
30618;BME280;17384;51.214;9.202;2023-04-29T10:32:42;98804.44;;;11.69;80.18
30618;BME280;17384;51.214;9.202;2023-04-29T10:35:09;98798.16;;;11.68;79.52
30618;BME280;17384;51.214;9.202;2023-04-29T10:37:39;98804.53;;;11.56;79.60
30618;BME280;17384;51.214;9.202;2023-04-29T10:42:50;98805.91;;;11.15;80.56
30618;BME280;17384;51.214;9.202;2023-04-29T10:45:30;98818.81;;;11.19;81.31
30618;BME280;17384;51.214;9.202;2023-04-29T10:50:28;98810.47;;;10.83;81.54
30618;BME280;17384;51.214;9.202;2023-04-29T10:52:54;98816.56;;;10.72;81.69
30618;BME280;17384;51.214;9.202;2023-04-29T10:55:22;98818.03;;;10.68;81.68
30618;BME280;17384;51.214;9.202;2023-04-29T10:57:48;98824.59;;;10.47;82.28
30618;BME280;17384;51.214;9.202;2023-04-29T11:00:27;98816.75;;;10.39;82.22
30618;BME280;17384;51.214;9.202;2023-04-29T11:02:53;98836.38;;;10.21;82.43
30618;BME280;17384;51.214;9.202;2023-04-29T11:08:20;98827.38;;;10.34;82.68
30618;BME280;17384;51.214;9.202;2023-04-29T11:10:52;98826.34;;;10.35;82.78
30618;BME280;17384;51.214;9.202;2023-04-29T11:13:28;98829.06;;;10.28;82.69
30618;BME280;17384;51.214;9.202;2023-04-29T11:16:04;98835.72;;;10.32;82.78
30618;BME280;17384;51.214;9.202;2023-04-29T11:18:30;98833.03;;;10.32;82.13
30618;BME280;17384;51.214;9.202;2023-04-29T11:23:38;98839.06;;;10.28;81.29
30618;BME280;17384;51.214;9.202;2023-04-29T11:26:05;98832.41;;;10.24;81.15
30618;BME280;17384;51.214;9.202;2023-04-29T11:28:32;98836.38;;;10.21;81.26
30618;BME280;17384;51.214;9.202;2023-04-29T11:30:58;98840.94;;;10.27;81.10
30618;BME280;17384;51.214;9.202;2023-04-29T11:33:25;98834.72;;;10.20;81.71
30618;BME280;17384;51.214;9.202;2023-04-29T11:35:54;98846.59;;;10.19;81.68
30618;BME280;17384;51.214;9.202;2023-04-29T11:38:27;98859.94;;;10.27;81.61
30618;BME280;17384;51.214;9.202;2023-04-29T11:40:56;98843.44;;;10.29;81.24
30618;BME280;17384;51.214;9.202;2023-04-29T11:43:23;98860.13;;;10.32;80.84
30618;BME280;17384;51.214;9.202;2023-04-29T11:45:50;98859.50;;;10.30;81.41
30618;BME280;17384;51.214;9.202;2023-04-29T11:48:25;98864.50;;;10.33;81.17
30618;BME280;17384;51.214;9.202;2023-04-29T11:50:56;98858.06;;;10.34;81.01
30618;BME280;17384;51.214;9.202;2023-04-29T11:53:24;98871.75;;;10.52;80.83
30618;BME280;17384;51.214;9.202;2023-04-29T11:55:52;98865.69;;;10.57;80.72
30618;BME280;17384;51.214;9.202;2023-04-29T11:58:19;98869.44;;;10.63;81.02
30618;BME280;17384;51.214;9.202;2023-04-29T12:00:49;98865.72;;;10.50;81.43
30618;BME280;17384;51.214;9.202;2023-04-29T12:03:16;98879.25;;;10.64;81.62
30618;BME280;17384;51.214;9.202;2023-04-29T12:05:51;98873.56;;;10.72;81.15
30618;BME280;17384;51.214;9.202;2023-04-29T12:08:20;98872.47;;;10.86;80.67
30618;BME280;17384;51.214;9.202;2023-04-29T12:10:46;98868.28;;;10.90;80.86
30618;BME280;17384;51.214;9.202;2023-04-29T12:13:12;98877.38;;;11.02;80.67
30618;BME280;17384;51.214;9.202;2023-04-29T12:15:38;98874.06;;;11.00;79.91
30618;BME280;17384;51.214;9.202;2023-04-29T12:18:04;98872.19;;;11.01;79.34
30618;BME280;17384;51.214;9.202;2023-04-29T12:20:30;98880.72;;;11.04;79.88
30618;BME280;17384;51.214;9.202;2023-04-29T12:22:55;98884.66;;;11.15;78.95
30618;BME280;17384;51.214;9.202;2023-04-29T12:25:26;98883.69;;;10.96;78.84
30618;BME280;17384;51.214;9.202;2023-04-29T12:27:58;98868.91;;;11.24;77.39
30618;BME280;17384;51.214;9.202;2023-04-29T12:30:24;98880.50;;;11.44;76.44
30618;BME280;17384;51.214;9.202;2023-04-29T12:32:51;98882.25;;;11.32;76.41
30618;BME280;17384;51.214;9.202;2023-04-29T12:35:16;98878.41;;;11.46;75.49
30618;BME280;17384;51.214;9.202;2023-04-29T12:37:42;98880.06;;;11.78;75.14
30618;BME280;17384;51.214;9.202;2023-04-29T12:40:13;98885.13;;;12.00;75.80
30618;BME280;17384;51.214;9.202;2023-04-29T12:42:40;98892.81;;;12.28;75.10
30618;BME280;17384;51.214;9.202;2023-04-29T12:45:06;98889.72;;;12.24;74.54
30618;BME280;17384;51.214;9.202;2023-04-29T12:47:32;98890.47;;;12.06;73.98
30618;BME280;17384;51.214;9.202;2023-04-29T12:49:59;98899.56;;;12.62;72.79
30618;BME280;17384;51.214;9.202;2023-04-29T12:52:25;98899.03;;;12.53;71.89
30618;BME280;17384;51.214;9.202;2023-04-29T12:54:50;98892.88;;;12.21;71.81
30618;BME280;17384;51.214;9.202;2023-04-29T12:57:16;98888.44;;;12.45;70.89
30618;BME280;17384;51.214;9.202;2023-04-29T12:59:41;98894.53;;;12.22;70.94
30618;BME280;17384;51.214;9.202;2023-04-29T13:02:07;98899.38;;;11.95;71.21
30618;BME280;17384;51.214;9.202;2023-04-29T13:04:32;98896.72;;;11.89;72.10
30618;BME280;17384;51.214;9.202;2023-04-29T13:06:57;98911.09;;;11.96;72.58
30618;BME280;17384;51.214;9.202;2023-04-29T13:09:26;98897.06;;;11.67;73.39
30618;BME280;17384;51.214;9.202;2023-04-29T13:11:52;98900.00;;;11.66;73.37
30618;BME280;17384;51.214;9.202;2023-04-29T13:14:17;98909.41;;;11.63;73.79
30618;BME280;17384;51.214;9.202;2023-04-29T13:16:43;98902.56;;;11.54;74.56
30618;BME280;17384;51.214;9.202;2023-04-29T13:19:09;98901.34;;;11.50;73.34
30618;BME280;17384;51.214;9.202;2023-04-29T13:21:35;98906.06;;;11.30;74.18
30618;BME280;17384;51.214;9.202;2023-04-29T13:24:00;98909.16;;;11.40;74.06
30618;BME280;17384;51.214;9.202;2023-04-29T13:26:26;98913.94;;;11.44;74.39